Time;durP1;ratioP1;P1;durP2;ratioP2;P2;SDS_P1;SDS_P2;PMS_P1;PMS_P2;Temp;Humidity;BMP_temperature;BMP_pressure;BME280_temperature;BME280_humidity;BME280_pressure;Samples;Min_cycle;Max_cycle;Signal;HPM_P1;HPM_P2
2023/02/12 00:00:14;;;;;;;33.50;28.30;;;;;;;;;;515121;28;1407;-71
2023/02/12 00:00:29;;;;;;;30.92;27.10;;;;;;;;;;513547;28;1649;-71
2023/02/12 00:00:45;;;;;;;31.48;26.88;;;;;;;;;;513774;28;1804;-71
2023/02/12 00:01:00;;;;;;;31.13;26.47;;;;;;;;;;516142;28;1754;-71
2023/02/12 00:01:16;;;;;;;30.00;26.42;;;;;;;;;;518001;28;1099;-70
2023/02/12 00:01:32;;;;;;;31.50;26.90;;;;;;;;;;515710;28;1549;-71
2023/02/12 00:01:47;;;;;;;33.03;27.57;;;;;;;;;;518768;28;1306;-71
2023/02/12 00:02:02;;;;;;;33.10;28.03;;;;;;;;;;518219;28;1247;-71
2023/02/12 00:02:18;;;;;;;32.42;27.95;;;;;;;;;;519391;28;1123;-71
2023/02/12 00:02:33;;;;;;;32.30;27.63;;;;;;;;;;517247;28;1352;-71
2023/02/12 00:02:48;;;;;;;31.90;27.50;;;;;;;;;;516963;28;1289;-72
2023/02/12 00:03:04;;;;;;;31.95;27.48;;;;;;;;;;515017;28;1452;-71
2023/02/12 00:03:19;;;;;;;31.60;27.10;;;;;;;;;;518134;28;1325;-72
2023/02/12 00:03:35;;;;;;;33.37;27.90;;;;;;;;;;517528;28;1324;-72
2023/02/12 00:03:51;;;;;;;35.17;28.55;;;;;;;;;;520149;28;1417;-74
2023/02/12 00:04:06;;;;;;;33.13;27.70;;;;;;;;;;519436;28;1198;-70
2023/02/12 00:04:21;;;;;;;32.03;27.30;;;;;;;;;;519554;28;1246;-71
2023/02/12 00:04:37;;;;;;;31.60;27.33;;;;;;;;;;521016;28;1216;-71
2023/02/12 00:04:52;;;;;;;31.57;27.60;;;;;;;;;;518280;28;1211;-71
2023/02/12 00:05:08;;;;;;;33.30;27.98;;;;;;;;;;519626;28;1449;-72
2023/02/12 00:05:23;;;;;;;33.97;28.20;;;;;;;;;;521600;28;1331;-73
2023/02/12 00:05:40;;;;;;;33.17;28.10;;;;;;;;;;518281;28;1380;-72
2023/02/12 00:06:00;;;;;;;33.40;28.30;;;;;;;;;;517106;28;1318;-72
2023/02/12 00:06:15;;;;;;;33.42;28.60;;;;;;;;;;517261;28;1243;-72
2023/02/12 00:06:30;;;;;;;34.07;28.53;;;;;;;;;;516600;28;1299;-72
2023/02/12 00:06:46;;;;;;;35.35;28.92;;;;;;;;;;519389;28;1357;-72
2023/02/12 00:07:01;;;;;;;34.80;28.97;;;;;;;;;;519318;28;1086;-72
2023/02/12 00:07:16;;;;;;;34.70;28.70;;;;;;;;;;516787;28;1311;-72
2023/02/12 00:07:32;;;;;;;34.78;28.58;;;;;;;;;;517511;28;1503;-71
2023/02/12 00:07:47;;;;;;;33.67;28.10;;;;;;;;;;518077;28;1246;-72
2023/02/12 00:08:02;;;;;;;33.63;28.43;;;;;;;;;;516824;28;1243;-72
2023/02/12 00:08:18;;;;;;;33.30;28.20;;;;;;;;;;517238;28;1454;-72
2023/02/12 00:08:34;;;;;;;33.57;27.90;;;;;;;;;;515653;28;1180;-72
2023/02/12 00:08:51;;;;;;;32.65;27.85;;;;;;;;;;516672;28;1328;-72
2023/02/12 00:09:06;;;;;;;32.65;28.08;;;;;;;;;;518131;28;1446;-72
2023/02/12 00:09:21;;;;;;;34.58;29.27;;;;;;;;;;516314;28;1226;-72
2023/02/12 00:09:37;;;;;;;34.57;29.63;;;;;;;;;;516584;28;1245;-72
2023/02/12 00:09:52;;;;;;;34.47;29.30;;;;;;;;;;516801;28;1204;-72
2023/02/12 00:10:08;;;;;;;33.78;28.92;;;;;;;;;;513873;28;1195;-72
2023/02/12 00:10:24;;;;;;;35.08;29.92;;;;;;;;;;514483;28;1417;-72
2023/02/12 00:10:41;;;;;;;36.50;30.73;;;;;;;;;;517203;28;1332;-72
2023/02/12 00:10:57;;;;;;;36.55;30.85;;;;;;;;;;518152;28;1495;-72
2023/02/12 00:11:17;;;;;;;36.87;30.83;;;;;;;;;;516840;28;1961;-72
2023/02/12 00:11:32;;;;;;;34.22;29.60;;;;;;;;;;520970;28;1385;-72
2023/02/12 00:11:48;;;;;;;34.93;29.50;;;;;;;;;;519007;28;1346;-72
2023/02/12 00:12:03;;;;;;;35.30;29.40;;;;;;;;;;519083;28;1208;-71
2023/02/12 00:12:18;;;;;;;36.05;30.50;;;;;;;;;;516702;28;1192;-70
2023/02/12 00:12:34;;;;;;;36.80;32.00;;;;;;;;;;519591;28;1287;-70
2023/02/12 00:12:52;;;;;;;35.97;31.27;;;;;;;;;;522153;28;1512;-72
2023/02/12 00:13:10;;;;;;;35.00;30.00;;;;;;;;;;519243;28;1370;-71
2023/02/12 00:13:30;;;;;;;34.10;29.02;;;;;;;;;;521713;28;1358;-71
2023/02/12 00:13:45;;;;;;;34.55;28.98;;;;;;;;;;522204;28;1102;-71
2023/02/12 00:14:02;;;;;;;35.15;28.90;;;;;;;;;;521207;28;1255;-70
2023/02/12 00:14:17;;;;;;;34.70;28.60;;;;;;;;;;520038;28;1687;-70
2023/02/12 00:14:33;;;;;;;35.53;28.47;;;;;;;;;;516391;28;1190;-70
2023/02/12 00:14:49;;;;;;;35.58;28.50;;;;;;;;;;518323;28;1380;-70
2023/02/12 00:15:05;;;;;;;34.00;28.35;;;;;;;;;;519657;28;1205;-71
2023/02/12 00:15:20;;;;;;;33.42;27.65;;;;;;;;;;516078;28;1475;-71
2023/02/12 00:15:39;;;;;;;33.00;27.40;;;;;;;;;;515249;28;1403;-71
2023/02/12 00:15:54;;;;;;;32.60;27.77;;;;;;;;;;515362;28;1368;-71
2023/02/12 00:16:13;;;;;;;32.58;27.67;;;;;;;;;;514715;28;1374;-71
2023/02/12 00:16:28;;;;;;;32.67;27.88;;;;;;;;;;514795;28;1389;-71
2023/02/12 00:16:44;;;;;;;33.97;28.00;;;;;;;;;;517915;28;1556;-70
2023/02/12 00:16:59;;;;;;;34.17;28.38;;;;;;;;;;517991;28;1212;-71
2023/02/12 00:17:15;;;;;;;33.95;28.30;;;;;;;;;;518910;28;1283;-71
2023/02/12 00:17:30;;;;;;;32.53;27.43;;;;;;;;;;520646;28;1300;-73
2023/02/12 00:17:45;;;;;;;32.10;27.50;;;;;;;;;;520360;28;1284;-70
2023/02/12 00:18:01;;;;;;;33.03;27.83;;;;;;;;;;519738;28;1176;-72
2023/02/12 00:18:16;;;;;;;32.77;27.60;;;;;;;;;;518332;28;1470;-70
2023/02/12 00:18:31;;;;;;;32.13;27.83;;;;;;;;;;518984;28;1172;-71
2023/02/12 00:18:50;;;;;;;33.50;28.08;;;;;;;;;;518849;28;1352;-72
2023/02/12 00:19:06;;;;;;;33.83;27.55;;;;;;;;;;520967;28;1286;-71
2023/02/12 00:19:21;;;;;;;32.67;27.37;;;;;;;;;;521616;28;1227;-71
2023/02/12 00:19:37;;;;;;;32.45;27.70;;;;;;;;;;521023;28;1406;-71
2023/02/12 00:19:52;;;;;;;32.50;27.50;;;;;;;;;;519223;28;1466;-71
2023/02/12 00:20:08;;;;;;;32.90;27.67;;;;;;;;;;520046;28;1255;-71
2023/02/12 00:20:23;;;;;;;32.17;27.60;;;;;;;;;;520553;28;1228;-71
2023/02/12 00:20:38;;;;;;;31.60;27.53;;;;;;;;;;519336;28;1405;-71
2023/02/12 00:20:54;;;;;;;32.70;28.13;;;;;;;;;;519743;28;1189;-71
2023/02/12 00:21:09;;;;;;;33.83;28.50;;;;;;;;;;520065;28;1171;-71
2023/02/12 00:21:25;;;;;;;33.60;28.45;;;;;;;;;;519786;28;1242;-71
2023/02/12 00:21:41;;;;;;;34.03;28.02;;;;;;;;;;518844;28;1282;-71
2023/02/12 00:21:56;;;;;;;34.10;27.80;;;;;;;;;;520952;28;1307;-71
2023/02/12 00:22:11;;;;;;;32.40;27.43;;;;;;;;;;518049;28;1503;-70
2023/02/12 00:22:28;;;;;;;33.60;28.02;;;;;;;;;;520671;28;1322;-71
2023/02/12 00:22:43;;;;;;;34.20;28.38;;;;;;;;;;520735;28;1270;-71
2023/02/12 00:22:59;;;;;;;33.53;28.30;;;;;;;;;;521628;28;1346;-71
2023/02/12 00:23:15;;;;;;;33.10;27.93;;;;;;;;;;518505;28;1329;-71
2023/02/12 00:23:31;;;;;;;33.35;27.55;;;;;;;;;;517085;28;1394;-71
2023/02/12 00:23:46;;;;;;;32.70;27.83;;;;;;;;;;515276;28;1326;-71
2023/02/12 00:24:02;;;;;;;30.52;27.23;;;;;;;;;;516006;28;1407;-71
2023/02/12 00:24:17;;;;;;;30.50;27.00;;;;;;;;;;514719;28;1179;-70
2023/02/12 00:24:32;;;;;;;32.63;27.63;;;;;;;;;;516732;28;1633;-71
2023/02/12 00:24:48;;;;;;;32.43;27.83;;;;;;;;;;516549;28;1233;-72
2023/02/12 00:25:04;;;;;;;31.60;27.50;;;;;;;;;;519808;28;1215;-72
2023/02/12 00:25:19;;;;;;;32.10;27.48;;;;;;;;;;516860;28;1229;-73
2023/02/12 00:25:34;;;;;;;31.98;27.90;;;;;;;;;;518293;28;1134;-72
2023/02/12 00:25:50;;;;;;;32.87;28.07;;;;;;;;;;517232;28;1245;-72
2023/02/12 00:26:16;;;;;;;33.33;27.70;;;;;;;;;;516924;28;1168;-72
2023/02/12 00:26:32;;;;;;;32.00;27.75;;;;;;;;;;516180;28;1108;-72
2023/02/12 00:26:47;;;;;;;31.87;27.87;;;;;;;;;;519016;28;1341;-72
2023/02/12 00:27:03;;;;;;;32.20;27.92;;;;;;;;;;516798;28;1373;-72
2023/02/12 00:27:18;;;;;;;34.00;28.43;;;;;;;;;;518241;28;1291;-72
2023/02/12 00:27:34;;;;;;;35.00;28.40;;;;;;;;;;520164;28;1293;-72
2023/02/12 00:27:50;;;;;;;33.63;28.30;;;;;;;;;;518593;28;1315;-72
2023/02/12 00:28:05;;;;;;;33.47;28.77;;;;;;;;;;518785;28;1420;-70
2023/02/12 00:28:20;;;;;;;35.47;29.40;;;;;;;;;;518857;28;1401;-70
2023/02/12 00:28:36;;;;;;;35.77;29.10;;;;;;;;;;519044;28;1188;-71
2023/02/12 00:28:52;;;;;;;33.80;28.60;;;;;;;;;;518208;28;1313;-71
2023/02/12 00:29:09;;;;;;;32.70;28.27;;;;;;;;;;516958;28;1453;-71
2023/02/12 00:29:24;;;;;;;33.28;28.85;;;;;;;;;;515299;28;1262;-71
2023/02/12 00:29:40;;;;;;;34.03;29.53;;;;;;;;;;515579;28;1106;-71
2023/02/12 00:29:55;;;;;;;34.00;28.80;;;;;;;;;;518303;28;1532;-71
2023/02/12 00:30:11;;;;;;;33.20;28.13;;;;;;;;;;519463;28;1030;-71
2023/02/12 00:30:26;;;;;;;31.98;27.90;;;;;;;;;;520203;28;1304;-71
2023/02/12 00:30:42;;;;;;;33.00;28.17;;;;;;;;;;520345;28;1197;-72
2023/02/12 00:30:57;;;;;;;34.42;28.90;;;;;;;;;;521540;28;1341;-71
2023/02/12 00:31:15;;;;;;;34.23;29.07;;;;;;;;;;522508;28;1957;-71
2023/02/12 00:31:31;;;;;;;35.47;29.40;;;;;;;;;;521110;28;1429;-71
2023/02/12 00:31:46;;;;;;;36.10;29.85;;;;;;;;;;520292;28;1278;-72
2023/02/12 00:32:02;;;;;;;35.92;30.17;;;;;;;;;;518477;28;1217;-71
2023/02/12 00:32:18;;;;;;;36.27;30.07;;;;;;;;;;517044;28;1169;-71
2023/02/12 00:32:33;;;;;;;34.80;29.63;;;;;;;;;;517544;28;1233;-71
2023/02/12 00:32:49;;;;;;;32.33;28.50;;;;;;;;;;519944;28;1295;-71
2023/02/12 00:33:04;;;;;;;33.63;29.23;;;;;;;;;;520796;28;1320;-71
2023/02/12 00:33:19;;;;;;;36.43;31.03;;;;;;;;;;521413;28;1566;-70
2023/02/12 00:33:35;;;;;;;35.70;30.23;;;;;;;;;;520727;28;1227;-71
2023/02/12 00:33:50;;;;;;;36.83;30.80;;;;;;;;;;519734;28;1199;-72
2023/02/12 00:34:06;;;;;;;37.67;31.77;;;;;;;;;;519108;28;1453;-72
2023/02/12 00:34:21;;;;;;;36.80;31.40;;;;;;;;;;519872;28;1248;-72
2023/02/12 00:34:36;;;;;;;37.23;31.87;;;;;;;;;;518351;28;1320;-71
2023/02/12 00:34:52;;;;;;;40.72;33.00;;;;;;;;;;516093;28;1286;-72
2023/02/12 00:35:07;;;;;;;40.43;32.83;;;;;;;;;;519077;28;1304;-72
2023/02/12 00:35:22;;;;;;;37.10;31.70;;;;;;;;;;520716;28;1199;-72
2023/02/12 00:35:38;;;;;;;37.03;31.25;;;;;;;;;;520673;28;1258;-71
2023/02/12 00:35:56;;;;;;;37.20;31.50;;;;;;;;;;517959;28;1375;-72
2023/02/12 00:36:18;;;;;;;37.92;31.35;;;;;;;;;;521429;28;1265;-72
2023/02/12 00:36:33;;;;;;;37.80;31.55;;;;;;;;;;515971;28;1229;-72
2023/02/12 00:36:48;;;;;;;36.77;31.37;;;;;;;;;;519209;28;1235;-72
2023/02/12 00:37:03;;;;;;;38.33;32.05;;;;;;;;;;517879;28;1250;-72
2023/02/12 00:37:19;;;;;;;37.40;31.60;;;;;;;;;;520501;28;1273;-72
2023/02/12 00:37:34;;;;;;;36.37;30.70;;;;;;;;;;522642;28;1292;-72
2023/02/12 00:37:49;;;;;;;36.38;30.73;;;;;;;;;;522848;28;1165;-72
2023/02/12 00:38:05;;;;;;;36.20;30.87;;;;;;;;;;519029;28;1406;-72
2023/02/12 00:38:20;;;;;;;39.00;32.13;;;;;;;;;;517369;28;1336;-72
2023/02/12 00:38:35;;;;;;;39.65;32.42;;;;;;;;;;517308;28;1248;-72
2023/02/12 00:38:52;;;;;;;37.80;31.50;;;;;;;;;;514472;28;1406;-72
2023/02/12 00:39:09;;;;;;;36.78;31.05;;;;;;;;;;515395;28;1366;-72
2023/02/12 00:39:24;;;;;;;36.85;31.50;;;;;;;;;;516861;28;1553;-72
2023/02/12 00:39:40;;;;;;;38.35;32.10;;;;;;;;;;516179;28;1216;-73
2023/02/12 00:39:55;;;;;;;39.67;32.90;;;;;;;;;;516503;28;1350;-72
2023/02/12 00:40:11;;;;;;;38.80;33.17;;;;;;;;;;514243;28;1218;-72
2023/02/12 00:40:26;;;;;;;39.33;33.30;;;;;;;;;;516072;28;1300;-72
2023/02/12 00:40:42;;;;;;;38.90;33.17;;;;;;;;;;519687;28;1292;-73
2023/02/12 00:40:57;;;;;;;37.37;32.63;;;;;;;;;;520798;28;1397;-72
2023/02/12 00:41:13;;;;;;;38.72;32.60;;;;;;;;;;516968;28;1312;-70
2023/02/12 00:41:28;;;;;;;39.43;32.43;;;;;;;;;;519691;28;1190;-71
2023/02/12 00:41:44;;;;;;;37.28;31.88;;;;;;;;;;516642;28;1219;-71
2023/02/12 00:41:59;;;;;;;36.80;31.70;;;;;;;;;;518848;28;1200;-71
2023/02/12 00:42:14;;;;;;;36.83;31.80;;;;;;;;;;517954;28;1328;-71
2023/02/12 00:42:29;;;;;;;36.33;31.60;;;;;;;;;;518337;28;1389;-71
2023/02/12 00:42:45;;;;;;;38.17;32.30;;;;;;;;;;517023;28;1291;-72
2023/02/12 00:43:00;;;;;;;38.73;32.50;;;;;;;;;;516349;28;1306;-71
2023/02/12 00:43:15;;;;;;;37.73;31.97;;;;;;;;;;520128;28;1363;-71
2023/02/12 00:43:31;;;;;;;39.93;32.17;;;;;;;;;;516428;28;1287;-72
2023/02/12 00:43:47;;;;;;;39.50;31.80;;;;;;;;;;517673;28;1557;-72
2023/02/12 00:44:02;;;;;;;38.15;31.67;;;;;;;;;;517593;28;1370;-72
2023/02/12 00:44:18;;;;;;;38.73;32.10;;;;;;;;;;518272;28;1423;-71
2023/02/12 00:44:34;;;;;;;37.30;31.83;;;;;;;;;;517568;28;1325;-72
2023/02/12 00:44:49;;;;;;;37.40;31.77;;;;;;;;;;516961;28;1645;-71
2023/02/12 00:45:04;;;;;;;38.50;32.00;;;;;;;;;;519242;28;1366;-72
2023/02/12 00:45:20;;;;;;;38.93;32.33;;;;;;;;;;518036;28;1156;-72
2023/02/12 00:45:36;;;;;;;39.35;32.65;;;;;;;;;;515154;28;1210;-71
2023/02/12 00:45:52;;;;;;;38.85;32.70;;;;;;;;;;519146;28;1425;-71
2023/02/12 00:46:07;;;;;;;36.85;31.75;;;;;;;;;;515463;28;1232;-71
2023/02/12 00:46:23;;;;;;;37.13;31.50;;;;;;;;;;517657;28;1371;-72
2023/02/12 00:46:38;;;;;;;38.05;31.80;;;;;;;;;;516908;28;1223;-71
2023/02/12 00:46:53;;;;;;;37.47;31.93;;;;;;;;;;518224;28;1340;-72
2023/02/12 00:47:09;;;;;;;37.10;32.10;;;;;;;;;;519187;28;1218;-72
2023/02/12 00:47:24;;;;;;;37.00;31.90;;;;;;;;;;517377;28;1364;-72
2023/02/12 00:47:39;;;;;;;37.47;32.23;;;;;;;;;;518920;28;1458;-72
2023/02/12 00:47:55;;;;;;;37.47;32.40;;;;;;;;;;521174;28;1314;-72
2023/02/12 00:48:10;;;;;;;36.63;32.22;;;;;;;;;;517146;28;1224;-72
2023/02/12 00:48:26;;;;;;;36.50;32.27;;;;;;;;;;519512;28;1320;-71
2023/02/12 00:48:41;;;;;;;36.22;31.70;;;;;;;;;;519999;28;1094;-72
2023/02/12 00:48:56;;;;;;;35.17;31.27;;;;;;;;;;516575;28;1475;-72
2023/02/12 00:49:13;;;;;;;35.03;31.17;;;;;;;;;;517722;28;1198;-72
2023/02/12 00:49:32;;;;;;;34.85;30.88;;;;;;;;;;518939;28;1343;-71
2023/02/12 00:49:48;;;;;;;35.38;30.80;;;;;;;;;;519897;28;1516;-72
2023/02/12 00:50:03;;;;;;;36.07;31.30;;;;;;;;;;518511;28;1196;-72
2023/02/12 00:50:19;;;;;;;35.28;30.70;;;;;;;;;;516651;28;1179;-71
2023/02/12 00:50:34;;;;;;;36.20;30.60;;;;;;;;;;520643;28;1255;-73
2023/02/12 00:50:49;;;;;;;37.80;30.27;;;;;;;;;;521450;28;1185;-72
2023/02/12 00:51:05;;;;;;;36.72;30.20;;;;;;;;;;519339;28;1979;-72
2023/02/12 00:51:21;;;;;;;36.80;30.88;;;;;;;;;;517032;28;1360;-72
2023/02/12 00:51:36;;;;;;;35.93;30.77;;;;;;;;;;516624;28;1144;-72
2023/02/12 00:51:51;;;;;;;35.60;31.07;;;;;;;;;;519328;28;1373;-72
2023/02/12 00:52:07;;;;;;;37.10;31.67;;;;;;;;;;518998;28;1249;-72
2023/02/12 00:52:22;;;;;;;36.43;31.77;;;;;;;;;;518938;28;1473;-72
2023/02/12 00:52:37;;;;;;;37.03;31.93;;;;;;;;;;518710;28;1375;-73
2023/02/12 00:52:52;;;;;;;38.30;32.28;;;;;;;;;;515824;28;1186;-72
2023/02/12 00:53:08;;;;;;;39.13;32.13;;;;;;;;;;516059;28;1345;-72
2023/02/12 00:53:23;;;;;;;39.33;31.93;;;;;;;;;;517743;28;1154;-72
2023/02/12 00:53:39;;;;;;;38.53;32.63;;;;;;;;;;519314;28;1342;-72
2023/02/12 00:53:54;;;;;;;38.47;32.93;;;;;;;;;;519615;28;1209;-72
2023/02/12 00:54:10;;;;;;;37.92;32.45;;;;;;;;;;519066;28;1258;-72
2023/02/12 00:54:25;;;;;;;36.20;31.93;;;;;;;;;;520440;28;1095;-72
2023/02/12 00:54:40;;;;;;;36.88;32.00;;;;;;;;;;519044;28;1311;-75
2023/02/12 00:54:56;;;;;;;37.03;31.73;;;;;;;;;;520894;28;1236;-72
2023/02/12 00:55:11;;;;;;;37.17;31.70;;;;;;;;;;520760;28;1313;-72
2023/02/12 00:55:26;;;;;;;39.25;33.00;;;;;;;;;;520912;28;1317;-72
2023/02/12 00:55:42;;;;;;;40.03;33.40;;;;;;;;;;518583;28;1307;-72
2023/02/12 00:55:57;;;;;;;39.35;32.85;;;;;;;;;;519765;28;1465;-72
2023/02/12 00:56:16;;;;;;;39.33;33.00;;;;;;;;;;518194;28;1514;-72
2023/02/12 00:56:31;;;;;;;41.22;33.92;;;;;;;;;;516248;28;1471;-72
2023/02/12 00:56:46;;;;;;;41.45;34.30;;;;;;;;;;518331;28;1359;-72
2023/02/12 00:57:02;;;;;;;39.60;34.07;;;;;;;;;;519475;28;1261;-73
2023/02/12 00:57:17;;;;;;;39.77;33.60;;;;;;;;;;516783;28;1436;-73
2023/02/12 00:57:32;;;;;;;39.28;32.85;;;;;;;;;;517461;28;1209;-72
2023/02/12 00:57:48;;;;;;;38.90;32.80;;;;;;;;;;518647;28;1150;-72
2023/02/12 00:58:03;;;;;;;38.70;33.30;;;;;;;;;;515955;28;1256;-72
2023/02/12 00:58:18;;;;;;;37.78;33.53;;;;;;;;;;517096;28;1335;-72
2023/02/12 00:58:34;;;;;;;37.93;33.53;;;;;;;;;;518237;28;1239;-72
2023/02/12 00:58:49;;;;;;;39.33;33.33;;;;;;;;;;517336;28;1508;-72
2023/02/12 00:59:05;;;;;;;40.57;33.97;;;;;;;;;;517003;28;1242;-72
2023/02/12 00:59:21;;;;;;;40.20;34.30;;;;;;;;;;514800;28;1444;-72
2023/02/12 00:59:38;;;;;;;38.88;33.92;;;;;;;;;;516128;28;1228;-72
2023/02/12 00:59:54;;;;;;;39.13;33.90;;;;;;;;;;513487;28;1406;-72
2023/02/12 01:00:10;;;;;;;39.25;34.05;;;;;;;;;;514729;28;1414;-72
2023/02/12 01:00:25;;;;;;;41.72;35.17;;;;;;;;;;516672;28;1220;-72
2023/02/12 01:00:40;;;;;;;43.53;35.53;;;;;;;;;;517513;28;1235;-72
2023/02/12 01:00:56;;;;;;;40.20;33.90;;;;;;;;;;519707;28;1365;-72
2023/02/12 01:01:11;;;;;;;39.77;33.60;;;;;;;;;;516979;28;1391;-72
2023/02/12 01:01:26;;;;;;;39.87;34.00;;;;;;;;;;519830;28;1474;-73
2023/02/12 01:01:42;;;;;;;39.03;33.37;;;;;;;;;;516873;28;1374;-73
2023/02/12 01:01:57;;;;;;;38.28;32.65;;;;;;;;;;514648;28;1325;-73
2023/02/12 01:02:12;;;;;;;38.07;33.03;;;;;;;;;;513064;28;1192;-72
2023/02/12 01:02:28;;;;;;;38.40;33.23;;;;;;;;;;515818;28;1214;-72
2023/02/12 01:02:43;;;;;;;38.30;32.85;;;;;;;;;;519218;28;1227;-72
2023/02/12 01:02:58;;;;;;;38.93;33.13;;;;;;;;;;513108;28;1370;-72
2023/02/12 01:03:14;;;;;;;38.70;33.27;;;;;;;;;;517327;28;1206;-72
2023/02/12 01:03:29;;;;;;;39.17;33.35;;;;;;;;;;517404;28;1227;-72
2023/02/12 01:03:45;;;;;;;39.72;33.22;;;;;;;;;;515895;28;1115;-72
2023/02/12 01:04:00;;;;;;;38.50;33.30;;;;;;;;;;516656;28;1334;-72
2023/02/12 01:04:16;;;;;;;38.67;33.23;;;;;;;;;;516662;28;1298;-72
2023/02/12 01:04:31;;;;;;;37.00;31.95;;;;;;;;;;519741;28;1355;-72
2023/02/12 01:04:46;;;;;;;36.00;31.47;;;;;;;;;;520052;28;1208;-72
2023/02/12 01:05:02;;;;;;;36.53;31.40;;;;;;;;;;518524;28;1254;-72
2023/02/12 01:05:20;;;;;;;37.35;31.92;;;;;;;;;;517647;28;1269;-72
2023/02/12 01:05:35;;;;;;;38.97;32.63;;;;;;;;;;517533;28;1374;-72
2023/02/12 01:05:52;;;;;;;36.70;31.58;;;;;;;;;;515730;28;1379;-72
2023/02/12 01:06:07;;;;;;;37.35;32.28;;;;;;;;;;516508;28;1749;-72
2023/02/12 01:06:23;;;;;;;36.55;31.85;;;;;;;;;;517370;28;1216;-72
2023/02/12 01:06:38;;;;;;;35.70;31.10;;;;;;;;;;515915;28;1449;-72
2023/02/12 01:06:53;;;;;;;36.57;31.47;;;;;;;;;;519736;28;1392;-72
2023/02/12 01:07:09;;;;;;;38.03;31.85;;;;;;;;;;515809;28;1394;-72
2023/02/12 01:07:24;;;;;;;38.67;32.50;;;;;;;;;;517368;28;1265;-72
2023/02/12 01:07:39;;;;;;;38.22;33.05;;;;;;;;;;516833;28;1232;-72
2023/02/12 01:07:55;;;;;;;38.90;33.33;;;;;;;;;;514992;28;1207;-71
2023/02/12 01:08:13;;;;;;;39.50;33.17;;;;;;;;;;517534;28;1323;-72
2023/02/12 01:08:29;;;;;;;38.35;32.83;;;;;;;;;;517766;28;1452;-72
2023/02/12 01:08:44;;;;;;;36.97;32.58;;;;;;;;;;516439;28;1694;-72
2023/02/12 01:09:00;;;;;;;37.23;32.83;;;;;;;;;;515881;28;1410;-71
2023/02/12 01:09:16;;;;;;;37.92;33.00;;;;;;;;;;517196;28;1274;-72
2023/02/12 01:09:31;;;;;;;37.97;33.10;;;;;;;;;;517755;28;1205;-72
2023/02/12 01:09:46;;;;;;;39.85;33.92;;;;;;;;;;517011;28;1250;-72
2023/02/12 01:10:02;;;;;;;38.30;32.93;;;;;;;;;;515299;28;1140;-72
2023/02/12 01:10:20;;;;;;;36.07;32.07;;;;;;;;;;516090;28;1461;-72
2023/02/12 01:10:35;;;;;;;36.75;32.30;;;;;;;;;;517887;28;1378;-72
2023/02/12 01:10:56;;;;;;;38.35;32.55;;;;;;;;;;515614;28;1347;-72
2023/02/12 01:11:13;;;;;;;37.72;32.13;;;;;;;;;;516651;28;1910;-72
2023/02/12 01:11:28;;;;;;;38.08;32.92;;;;;;;;;;518677;28;1261;-71
2023/02/12 01:11:43;;;;;;;40.88;34.35;;;;;;;;;;518670;28;1384;-72
2023/02/12 01:11:59;;;;;;;40.33;34.47;;;;;;;;;;520886;28;1149;-71
2023/02/12 01:12:14;;;;;;;39.00;33.80;;;;;;;;;;517480;28;1215;-72
2023/02/12 01:12:29;;;;;;;38.78;33.05;;;;;;;;;;518514;28;1490;-72
2023/02/12 01:12:46;;;;;;;37.77;33.03;;;;;;;;;;521159;28;1377;-72
2023/02/12 01:13:01;;;;;;;37.63;33.20;;;;;;;;;;519333;28;1258;-72
2023/02/12 01:13:32;;;;;;;38.67;33.25;;;;;;;;;;324738;28;10001200;-72
2023/02/12 01:13:47;;;;;;;38.02;33.54;;;;;;;;;;172998;28;10001241;-72
2023/02/12 01:14:03;;;;;;;40.53;34.53;;;;;;;;;;519082;28;1436;-72
2023/02/12 01:14:19;;;;;;;40.75;34.33;;;;;;;;;;516919;28;1337;-72
2023/02/12 01:14:34;;;;;;;39.72;33.78;;;;;;;;;;514962;28;1508;-73
2023/02/12 01:14:49;;;;;;;39.70;33.90;;;;;;;;;;514104;28;1322;-70
2023/02/12 01:15:05;;;;;;;41.10;34.10;;;;;;;;;;516387;28;1378;-71
2023/02/12 01:15:21;;;;;;;41.92;34.65;;;;;;;;;;519208;28;1630;-71
2023/02/12 01:15:36;;;;;;;40.97;34.88;;;;;;;;;;520397;28;1380;-71
2023/02/12 01:16:11;;;;;;;41.23;34.77;;;;;;;;;;519112;28;1243;-71
2023/02/12 01:16:26;;;;;;;41.83;34.15;;;;;;;;;;518219;28;1639;-71
2023/02/12 01:16:42;;;;;;;40.03;34.30;;;;;;;;;;518857;28;1363;-71
2023/02/12 01:16:57;;;;;;;39.60;34.38;;;;;;;;;;520079;28;1538;-71
2023/02/12 01:17:12;;;;;;;40.03;34.37;;;;;;;;;;518512;28;1275;-71
2023/02/12 01:17:28;;;;;;;40.37;34.30;;;;;;;;;;515358;28;1219;-71
2023/02/12 01:17:43;;;;;;;41.38;34.65;;;;;;;;;;517379;28;1220;-71
2023/02/12 01:17:59;;;;;;;40.60;34.30;;;;;;;;;;519064;28;1189;-71
2023/02/12 01:18:15;;;;;;;40.88;34.13;;;;;;;;;;515564;28;1287;-71
2023/02/12 01:18:30;;;;;;;42.13;34.95;;;;;;;;;;515304;28;1284;-71
2023/02/12 01:18:45;;;;;;;42.17;34.97;;;;;;;;;;516676;28;1743;-72
2023/02/12 01:19:03;;;;;;;40.90;34.67;;;;;;;;;;517678;28;1211;-71
2023/02/12 01:19:18;;;;;;;40.63;34.45;;;;;;;;;;518783;28;1409;-71
2023/02/12 01:19:34;;;;;;;41.53;34.30;;;;;;;;;;519928;28;1277;-71
2023/02/12 01:19:49;;;;;;;40.35;34.08;;;;;;;;;;520119;28;1339;-71
2023/02/12 01:20:07;;;;;;;40.07;34.40;;;;;;;;;;519609;28;1270;-71
2023/02/12 01:20:23;;;;;;;39.80;34.10;;;;;;;;;;516373;28;1396;-71
2023/02/12 01:20:39;;;;;;;40.28;34.35;;;;;;;;;;515073;28;1264;-71
2023/02/12 01:20:54;;;;;;;41.00;34.63;;;;;;;;;;514910;28;1270;-71
2023/02/12 01:21:09;;;;;;;39.90;33.47;;;;;;;;;;514291;28;1381;-71
2023/02/12 01:21:28;;;;;;;39.03;33.47;;;;;;;;;;514414;28;1272;-71
2023/02/12 01:21:43;;;;;;;39.75;34.15;;;;;;;;;;515769;28;1490;-71
2023/02/12 01:21:59;;;;;;;39.05;33.53;;;;;;;;;;512747;28;1396;-71
2023/02/12 01:22:15;;;;;;;38.40;33.13;;;;;;;;;;514367;28;1224;-72
2023/02/12 01:22:30;;;;;;;36.88;32.47;;;;;;;;;;514666;28;1299;-71
2023/02/12 01:22:46;;;;;;;36.73;32.47;;;;;;;;;;513328;28;1257;-71
2023/02/12 01:23:01;;;;;;;36.80;32.63;;;;;;;;;;512844;28;1285;-71
2023/02/12 01:23:16;;;;;;;38.58;33.47;;;;;;;;;;515093;28;1536;-72
2023/02/12 01:23:32;;;;;;;39.60;33.83;;;;;;;;;;516348;28;1183;-72
2023/02/12 01:23:48;;;;;;;37.47;32.93;;;;;;;;;;515512;28;1172;-71
2023/02/12 01:24:03;;;;;;;37.40;32.97;;;;;;;;;;515810;28;1189;-71
2023/02/12 01:24:19;;;;;;;37.95;32.60;;;;;;;;;;514959;28;1386;-71
2023/02/12 01:24:34;;;;;;;36.50;31.57;;;;;;;;;;517622;28;1342;-71
2023/02/12 01:24:49;;;;;;;36.33;31.95;;;;;;;;;;515304;28;1327;-72
2023/02/12 01:25:06;;;;;;;35.60;31.70;;;;;;;;;;517010;28;1249;-72
2023/02/12 01:25:21;;;;;;;35.30;31.23;;;;;;;;;;518711;28;1272;-72
2023/02/12 01:25:37;;;;;;;35.83;31.52;;;;;;;;;;518290;28;1360;-72
2023/02/12 01:25:53;;;;;;;35.75;31.15;;;;;;;;;;519755;28;1326;-72
2023/02/12 01:26:12;;;;;;;36.43;31.40;;;;;;;;;;519689;28;1422;-72
2023/02/12 01:26:28;;;;;;;36.55;31.33;;;;;;;;;;516949;28;2308;-72
2023/02/12 01:26:44;;;;;;;35.33;31.02;;;;;;;;;;515572;28;1286;-72
2023/02/12 01:26:59;;;;;;;36.20;31.63;;;;;;;;;;519080;28;1215;-72
2023/02/12 01:27:14;;;;;;;36.83;31.73;;;;;;;;;;517666;28;1210;-72
2023/02/12 01:27:30;;;;;;;37.83;32.00;;;;;;;;;;518696;28;1353;-72
2023/02/12 01:27:45;;;;;;;38.08;32.30;;;;;;;;;;522418;28;1179;-72
2023/02/12 01:28:00;;;;;;;36.43;31.70;;;;;;;;;;521290;28;1171;-71
2023/02/12 01:28:16;;;;;;;36.67;31.80;;;;;;;;;;519064;28;1521;-72
2023/02/12 01:28:31;;;;;;;38.50;32.70;;;;;;;;;;522135;28;1364;-72
2023/02/12 01:28:52;;;;;;;39.80;33.33;;;;;;;;;;523522;28;1207;-71
2023/02/12 01:29:07;;;;;;;39.38;32.83;;;;;;;;;;520973;28;1563;-71
2023/02/12 01:29:23;;;;;;;39.27;32.87;;;;;;;;;;521167;28;1460;-71
2023/02/12 01:29:38;;;;;;;40.28;33.67;;;;;;;;;;522685;28;1484;-70
2023/02/12 01:29:53;;;;;;;41.30;34.17;;;;;;;;;;522551;28;1084;-70
2023/02/12 01:30:12;;;;;;;40.73;34.00;;;;;;;;;;520891;28;1219;-71
2023/02/12 01:30:28;;;;;;;39.50;33.33;;;;;;;;;;521018;28;1691;-71
2023/02/12 01:30:43;;;;;;;38.50;33.53;;;;;;;;;;519336;28;1277;-71
2023/02/12 01:30:58;;;;;;;38.00;33.30;;;;;;;;;;520838;28;1219;-72
2023/02/12 01:31:17;;;;;;;38.07;32.63;;;;;;;;;;520390;28;1957;-71
2023/02/12 01:31:36;;;;;;;37.95;32.70;;;;;;;;;;521402;28;1398;-72
2023/02/12 01:31:51;;;;;;;37.47;32.22;;;;;;;;;;521372;28;1477;-72
2023/02/12 01:32:06;;;;;;;37.53;32.50;;;;;;;;;;521526;28;1223;-71
2023/02/12 01:32:22;;;;;;;37.03;32.50;;;;;;;;;;518482;28;1449;-71
2023/02/12 01:32:37;;;;;;;36.83;32.27;;;;;;;;;;517717;28;1213;-71
2023/02/12 01:32:54;;;;;;;36.90;32.28;;;;;;;;;;513601;28;1389;-71
2023/02/12 01:33:09;;;;;;;35.90;31.70;;;;;;;;;;513590;28;1426;-71
2023/02/12 01:33:25;;;;;;;35.23;31.30;;;;;;;;;;514867;28;1284;-72
2023/02/12 01:33:42;;;;;;;35.60;31.33;;;;;;;;;;515114;28;1250;-72
2023/02/12 01:33:58;;;;;;;34.97;31.08;;;;;;;;;;515104;28;1260;-72
2023/02/12 01:34:14;;;;;;;37.75;32.75;;;;;;;;;;515901;28;1423;-72
2023/02/12 01:34:29;;;;;;;39.42;32.92;;;;;;;;;;516936;28;1392;-72
2023/02/12 01:34:44;;;;;;;37.40;32.13;;;;;;;;;;518954;28;1194;-71
2023/02/12 01:35:00;;;;;;;36.07;31.97;;;;;;;;;;518212;28;1097;-72
2023/02/12 01:35:15;;;;;;;35.57;31.23;;;;;;;;;;519549;28;1281;-72